createdAt,value
2019-01-23T00:02:12.137Z,59.08
2019-01-23T00:04:39.492Z,63.70
2019-01-23T00:07:06.744Z,53.85
2019-01-23T00:09:34.101Z,67.70
2019-01-23T00:12:01.837Z,61.08
2019-01-23T00:14:29.279Z,67.00
2019-01-23T00:16:56.560Z,54.48
2019-01-23T00:19:23.845Z,56.60
2019-01-23T00:21:50.989Z,58.55
2019-01-23T00:24:18.610Z,57.40
2019-01-23T00:26:45.675Z,64.27
2019-01-23T00:29:13.037Z,64.45
2019-01-23T00:31:40.869Z,60.35
2019-01-23T00:34:08.732Z,66.28
2019-01-23T00:36:35.624Z,76.42
2019-01-23T00:39:06.388Z,63.55
2019-01-23T00:41:33.636Z,67.87
2019-01-23T00:44:00.717Z,67.03
2019-01-23T00:46:28.032Z,61.02
2019-01-23T00:48:55.633Z,65.67
2019-01-23T00:51:22.704Z,58.58
2019-01-23T00:53:49.533Z,67.55
2019-01-23T00:56:16.966Z,56.58
2019-01-23T00:58:49.133Z,66.40
2019-01-23T01:01:13.893Z,66.55
2019-01-23T01:03:41.350Z,68.83
2019-01-23T01:06:08.913Z,65.90
2019-01-23T01:08:36.440Z,63.95
2019-01-23T01:11:03.706Z,69.12
2019-01-23T01:13:31.006Z,61.83
2019-01-23T01:15:58.524Z,65.55
2019-01-23T01:18:25.920Z,61.08
2019-01-23T01:20:53.898Z,60.03
2019-01-23T01:23:21.604Z,69.47
2019-01-23T01:25:48.686Z,64.47
2019-01-23T01:28:16.417Z,55.92
2019-01-23T01:30:43.727Z,61.63
2019-01-23T01:33:11.367Z,59.08
2019-01-23T01:35:39.053Z,61.05
2019-01-23T01:38:06.299Z,64.17
2019-01-23T01:40:33.577Z,72.58
2019-01-23T01:43:01.269Z,66.75
2019-01-23T01:45:28.840Z,73.40
2019-01-23T01:47:56.300Z,74.55
2019-01-23T01:50:23.598Z,73.10
2019-01-23T01:52:51.408Z,50.43
2019-01-23T01:55:19.193Z,70.12
2019-01-23T01:57:46.757Z,58.87
2019-01-23T02:00:16.284Z,60.75
2019-01-23T02:02:43.458Z,56.65
2019-01-23T02:05:10.507Z,57.83
2019-01-23T02:07:37.543Z,55.30
2019-01-23T02:10:06.490Z,59.30
2019-01-23T02:12:34.118Z,60.73
2019-01-23T02:15:01.824Z,56.88
2019-01-23T02:17:28.893Z,59.85
2019-01-23T02:19:55.959Z,57.20
2019-01-23T02:22:23.489Z,60.30
2019-01-23T02:24:50.925Z,69.32
2019-01-23T02:27:18.289Z,62.30
2019-01-23T02:29:46.192Z,62.08
2019-01-23T02:32:14.034Z,61.65
2019-01-23T02:34:41.374Z,56.98
2019-01-23T02:37:09.173Z,66.22
2019-01-23T02:39:36.123Z,60.43
2019-01-23T02:42:03.591Z,63.60
2019-01-23T02:44:31.228Z,66.53
2019-01-23T02:46:58.633Z,56.73
2019-01-23T02:49:26.064Z,53.65
2019-01-23T02:51:53.465Z,72.30
2019-01-23T02:54:20.807Z,60.20
2019-01-23T02:56:48.137Z,65.57
2019-01-23T02:59:17.544Z,63.50
2019-01-23T03:01:44.806Z,69.17
2019-01-23T03:04:12.542Z,62.95
2019-01-23T03:06:39.876Z,67.62
2019-01-23T03:09:07.224Z,72.55
2019-01-23T03:11:34.645Z,62.50
2019-01-23T03:14:01.803Z,66.97
2019-01-23T03:16:29.489Z,58.38
2019-01-23T03:18:56.805Z,61.42
2019-01-23T03:21:24.321Z,61.83
2019-01-23T03:23:51.829Z,53.65
2019-01-23T03:26:19.538Z,63.98
2019-01-23T03:28:47.005Z,51.40
2019-01-23T03:31:14.491Z,56.75
2019-01-23T03:33:42.219Z,55.88
2019-01-23T03:36:09.460Z,64.97
2019-01-23T03:38:36.754Z,52.67
2019-01-23T03:41:03.997Z,69.67
2019-01-23T03:43:31.333Z,57.27
2019-01-23T03:45:58.872Z,70.57
2019-01-23T03:48:25.954Z,59.18
2019-01-23T03:50:53.006Z,54.90
2019-01-23T03:53:20.005Z,57.35
2019-01-23T03:55:47.762Z,62.80
2019-01-23T03:58:15.028Z,56.73
2019-01-23T04:00:42.690Z,60.00
2019-01-23T04:03:10.320Z,59.40
2019-01-23T04:05:38.275Z,54.13
2019-01-23T04:08:05.427Z,55.50
2019-01-23T04:10:32.792Z,50.50
2019-01-23T04:12:59.844Z,60.17
2019-01-23T04:15:27.259Z,78.42
2019-01-23T04:17:54.406Z,56.02
2019-01-23T04:20:22.101Z,61.58
2019-01-23T04:22:49.659Z,63.42
2019-01-23T04:25:17.473Z,81.97
2019-01-23T04:27:44.784Z,86.08
2019-01-23T04:30:14.974Z,104.12
2019-01-23T04:32:42.030Z,73.50
2019-01-23T04:35:09.562Z,57.15
2019-01-23T04:37:36.975Z,53.78
2019-01-23T04:40:05.711Z,67.47
2019-01-23T04:42:32.973Z,66.25
2019-01-23T04:45:00.545Z,58.17
2019-01-23T04:47:27.357Z,64.40
2019-01-23T04:49:54.407Z,67.47
2019-01-23T04:52:39.609Z,67.82
2019-01-23T04:55:06.996Z,63.75
2019-01-23T04:57:34.616Z,72.92
2019-01-23T05:00:02.280Z,75.97
2019-01-23T05:02:29.985Z,78.62
2019-01-23T05:04:57.311Z,67.17
2019-01-23T05:07:24.623Z,54.80
2019-01-23T05:09:52.028Z,60.90
2019-01-23T05:12:19.394Z,64.87
2019-01-23T05:14:46.440Z,75.30
2019-01-23T05:17:14.167Z,65.90
2019-01-23T05:19:40.968Z,61.85
2019-01-23T05:22:08.148Z,61.02
2019-01-23T05:24:35.510Z,63.75
2019-01-23T05:27:03.145Z,64.77
2019-01-23T05:29:30.997Z,60.95
2019-01-23T05:31:58.445Z,57.05
2019-01-23T05:34:25.674Z,60.10
2019-01-23T05:36:52.757Z,65.80
2019-01-23T05:39:20.595Z,65.75
2019-01-23T05:41:47.817Z,54.88
2019-01-23T05:44:15.135Z,60.10
2019-01-23T05:46:42.453Z,58.83
2019-01-23T05:49:09.519Z,72.60
2019-01-23T05:51:36.674Z,75.85
2019-01-23T05:54:03.920Z,64.37
2019-01-23T05:56:30.998Z,74.90
2019-01-23T05:58:58.656Z,79.07
2019-01-23T06:01:26.001Z,78.95
2019-01-23T06:03:53.697Z,86.17
2019-01-23T06:06:20.567Z,75.28
2019-01-23T06:08:47.914Z,67.47
2019-01-23T06:11:15.226Z,70.40
2019-01-23T06:13:42.298Z,78.22
2019-01-23T06:16:09.818Z,74.35
2019-01-23T06:18:36.877Z,78.67
2019-01-23T06:21:04.146Z,66.17
2019-01-23T06:23:31.476Z,70.90
2019-01-23T06:25:58.655Z,79.05
2019-01-23T06:28:25.718Z,74.50
2019-01-23T06:30:53.046Z,64.62
2019-01-23T06:33:20.098Z,72.45
2019-01-23T06:35:47.146Z,64.70
2019-01-23T06:38:14.465Z,71.02
2019-01-23T06:40:41.627Z,55.83
2019-01-23T06:43:08.881Z,63.55
2019-01-23T06:45:36.302Z,69.27
2019-01-23T06:48:04.098Z,70.30
2019-01-23T06:50:31.433Z,60.83
2019-01-23T06:52:59.141Z,66.62
2019-01-23T06:55:26.293Z,77.00
2019-01-23T06:57:53.388Z,81.37
2019-01-23T07:00:22.660Z,93.03
2019-01-23T07:02:50.188Z,79.97
2019-01-23T07:05:17.446Z,76.20
2019-01-23T07:07:44.980Z,71.65
2019-01-23T07:10:15.854Z,70.37
2019-01-23T07:12:43.274Z,67.17
2019-01-23T07:15:10.545Z,54.67
2019-01-23T07:17:38.041Z,59.53
2019-01-23T07:20:07.816Z,57.43
2019-01-23T07:22:34.964Z,63.08
2019-01-23T07:25:02.504Z,75.72
2019-01-23T07:27:29.817Z,88.58
2019-01-23T07:29:56.968Z,89.40
2019-01-23T07:32:24.664Z,72.70
2019-01-23T07:34:51.838Z,71.05
2019-01-23T07:37:19.274Z,72.05
2019-01-23T07:39:46.417Z,65.72
2019-01-23T07:42:13.560Z,65.95
2019-01-23T07:44:40.630Z,64.53
2019-01-23T07:47:08.049Z,61.33
2019-01-23T07:49:35.635Z,72.32
2019-01-23T07:52:03.144Z,72.53
2019-01-23T07:54:30.414Z,75.75
2019-01-23T07:56:57.567Z,70.52
2019-01-23T07:59:24.897Z,73.62
2019-01-23T08:01:52.136Z,84.10
2019-01-23T08:04:19.874Z,56.13
2019-01-23T08:06:47.035Z,78.60
2019-01-23T08:09:14.286Z,79.67
2019-01-23T08:11:41.552Z,81.17
2019-01-23T08:14:09.053Z,82.95
2019-01-23T08:16:36.208Z,73.25
2019-01-23T08:19:03.683Z,65.50
2019-01-23T08:21:31.117Z,67.47
2019-01-23T08:23:58.190Z,85.87
2019-01-23T08:26:25.527Z,81.55
2019-01-23T08:28:52.759Z,52.48
2019-01-23T08:31:20.565Z,59.53
2019-01-23T08:33:47.947Z,66.35
2019-01-23T08:36:15.214Z,70.32
2019-01-23T08:38:42.263Z,57.05
2019-01-23T08:41:09.974Z,74.80
2019-01-23T08:43:37.377Z,73.50
2019-01-23T08:46:04.930Z,79.20
2019-01-23T08:48:32.256Z,71.20
2019-01-23T08:50:59.814Z,54.95
2019-01-23T08:53:27.418Z,80.07
2019-01-23T08:55:54.577Z,93.07
2019-01-23T08:58:22.033Z,71.97
2019-01-23T09:00:49.198Z,86.97
2019-01-23T09:03:16.089Z,85.15
2019-01-23T09:05:43.141Z,70.50
2019-01-23T09:08:10.954Z,77.40
2019-01-23T09:10:38.197Z,62.03
2019-01-23T09:13:05.642Z,79.00
2019-01-23T09:15:33.078Z,67.47
2019-01-23T09:18:00.354Z,62.13
2019-01-23T09:20:27.777Z,71.70
2019-01-23T09:22:55.090Z,78.00
2019-01-23T09:25:22.858Z,73.10
2019-01-23T09:27:49.909Z,59.05
2019-01-23T09:30:25.448Z,60.45
2019-01-23T09:33:26.122Z,70.67
2019-01-23T09:36:04.353Z,66.80
2019-01-23T09:38:58.605Z,63.73
2019-01-23T09:42:00.729Z,54.33
2019-01-23T09:45:00.349Z,66.05
2019-01-23T09:47:36.824Z,58.38
2019-01-23T09:50:32.371Z,73.72
2019-01-23T09:53:34.261Z,59.70
2019-01-23T09:56:01.527Z,71.45
2019-01-23T09:58:29.090Z,68.87
2019-01-23T10:00:59.879Z,63.98
2019-01-23T10:03:25.818Z,73.40
2019-01-23T10:05:52.882Z,74.87
2019-01-23T10:08:19.789Z,83.80
2019-01-23T10:10:46.971Z,76.35
2019-01-23T10:13:14.226Z,63.55
2019-01-23T10:15:50.120Z,58.17
2019-01-23T10:18:17.110Z,67.80
2019-01-23T10:20:44.097Z,100.72
2019-01-23T10:23:12.354Z,79.05
2019-01-23T10:25:39.528Z,87.00
2019-01-23T10:28:06.439Z,76.42
2019-01-23T10:30:33.585Z,92.72
2019-01-23T10:33:00.677Z,77.75
2019-01-23T10:35:27.926Z,69.45
2019-01-23T10:37:54.981Z,75.40
2019-01-23T10:40:21.893Z,80.97
2019-01-23T10:42:48.890Z,72.30
2019-01-23T10:45:16.153Z,90.28
2019-01-23T10:47:43.902Z,75.05
2019-01-23T10:50:11.864Z,78.00
2019-01-23T10:52:39.294Z,77.17
2019-01-23T10:55:06.602Z,77.65
2019-01-23T10:57:34.159Z,80.55
2019-01-23T11:00:01.703Z,81.22
2019-01-23T11:02:29.402Z,71.07
2019-01-23T11:04:56.548Z,90.45
2019-01-23T11:07:24.173Z,77.32
2019-01-23T11:09:51.353Z,73.52
2019-01-23T11:12:18.797Z,77.05
2019-01-23T11:14:46.245Z,75.15
2019-01-23T11:17:13.434Z,66.47
2019-01-23T11:19:41.199Z,81.37
2019-01-23T11:22:08.713Z,68.57
2019-01-23T11:24:36.002Z,82.42
2019-01-23T11:27:03.555Z,79.45
2019-01-23T11:29:30.861Z,86.20
2019-01-23T11:31:58.102Z,83.95
2019-01-23T11:34:25.528Z,84.55
2019-01-23T11:36:52.564Z,71.50
2019-01-23T11:39:20.394Z,75.10
2019-01-23T11:41:47.222Z,68.75
2019-01-23T11:44:14.556Z,60.80
2019-01-23T11:46:41.572Z,77.78
2019-01-23T11:49:08.583Z,65.40
2019-01-23T11:51:35.757Z,70.25
2019-01-23T11:54:03.288Z,67.75
2019-01-23T11:56:30.574Z,68.45
2019-01-23T11:58:57.873Z,73.72
2019-01-23T12:01:27.590Z,65.55
2019-01-23T12:03:54.374Z,62.20
2019-01-23T12:06:21.894Z,63.30
2019-01-23T12:08:49.437Z,62.95
2019-01-23T12:11:16.976Z,65.87
2019-01-23T12:13:44.553Z,62.40
2019-01-23T12:16:11.800Z,61.60
2019-01-23T12:18:39.024Z,54.90
2019-01-23T12:21:06.173Z,55.90
2019-01-23T12:23:33.694Z,55.73
2019-01-23T12:26:01.327Z,67.08
2019-01-23T12:28:28.881Z,57.53
2019-01-23T12:30:56.306Z,63.33
2019-01-23T12:33:23.749Z,61.02
2019-01-23T12:35:51.272Z,58.75
2019-01-23T12:38:18.606Z,61.10
2019-01-23T12:40:46.199Z,53.87
2019-01-23T12:43:13.576Z,54.42
2019-01-23T12:45:41.152Z,63.30
2019-01-23T12:48:08.487Z,65.20
2019-01-23T12:50:36.020Z,66.25
2019-01-23T12:53:03.854Z,53.08
2019-01-23T12:55:31.288Z,59.88
2019-01-23T12:57:58.725Z,61.20
2019-01-23T13:00:27.783Z,63.48
2019-01-23T13:02:55.040Z,62.20
2019-01-23T13:05:22.388Z,54.25
2019-01-23T13:07:50.205Z,65.25
2019-01-23T13:10:18.356Z,73.83
2019-01-23T13:12:45.370Z,75.85
2019-01-23T13:15:14.580Z,62.60
2019-01-23T13:17:41.877Z,55.63
2019-01-23T13:20:11.372Z,57.13
2019-01-23T13:22:39.811Z,57.50
2019-01-23T13:25:10.078Z,59.67
2019-01-23T13:27:37.598Z,53.28
2019-01-23T13:30:06.965Z,50.65
2019-01-23T13:32:34.234Z,70.40
2019-01-23T13:35:01.653Z,60.95
2019-01-23T13:37:29.006Z,64.22
2019-01-23T13:39:56.418Z,62.05
2019-01-23T13:42:23.833Z,51.42
2019-01-23T13:44:51.289Z,53.52
2019-01-23T13:47:18.355Z,57.00
2019-01-23T13:49:45.672Z,56.95
2019-01-23T13:52:13.268Z,55.50
2019-01-23T13:54:40.833Z,55.52
2019-01-23T13:57:08.618Z,63.48
2019-01-23T13:59:35.966Z,59.38
2019-01-23T14:02:03.254Z,55.40
2019-01-23T14:04:30.861Z,54.38
2019-01-23T14:06:58.364Z,52.23
2019-01-23T14:09:26.046Z,55.78
2019-01-23T14:11:53.578Z,50.70
2019-01-23T14:14:20.912Z,59.08
2019-01-23T14:16:48.354Z,51.30
2019-01-23T14:19:15.413Z,53.35
2019-01-23T14:21:43.126Z,56.88
2019-01-23T14:24:10.393Z,51.58
2019-01-23T14:26:37.842Z,53.15
2019-01-23T14:29:05.017Z,54.38
2019-01-23T14:31:32.085Z,54.27
2019-01-23T14:33:59.438Z,52.83
2019-01-23T14:36:26.730Z,47.08
2019-01-23T14:38:53.633Z,53.55
2019-01-23T14:41:20.972Z,52.03
2019-01-23T14:43:48.009Z,47.50
2019-01-23T14:46:15.070Z,56.50
2019-01-23T14:48:42.648Z,54.75
2019-01-23T14:51:10.182Z,53.68
2019-01-23T14:53:37.600Z,51.23
2019-01-23T14:56:05.278Z,52.50
2019-01-23T14:58:32.582Z,58.90
2019-01-23T15:00:59.781Z,53.10
2019-01-23T15:03:26.934Z,51.92
2019-01-23T15:05:54.330Z,63.05
2019-01-23T15:08:22.094Z,57.62
2019-01-23T15:10:49.244Z,58.52
2019-01-23T15:13:16.825Z,50.33
2019-01-23T15:15:44.517Z,59.98
2019-01-23T15:18:12.274Z,63.02
2019-01-23T15:20:40.069Z,57.33
2019-01-23T15:23:07.232Z,57.40
2019-01-23T15:25:34.774Z,51.95
2019-01-23T15:28:02.084Z,59.90
2019-01-23T15:30:29.474Z,48.38
2019-01-23T15:32:56.893Z,52.62
2019-01-23T15:35:24.549Z,47.13
2019-01-23T15:37:52.343Z,47.85
2019-01-23T15:40:22.096Z,60.78
2019-01-23T15:42:49.749Z,50.78
2019-01-23T15:45:16.768Z,51.65
2019-01-23T15:47:44.582Z,59.55
2019-01-23T15:50:14.623Z,56.53
2019-01-23T15:52:41.845Z,53.83
2019-01-23T15:55:11.057Z,53.80
2019-01-23T15:57:37.967Z,60.55
2019-01-23T16:00:09.058Z,54.23
2019-01-23T16:02:36.580Z,76.33
2019-01-23T16:05:04.406Z,60.28
2019-01-23T16:07:31.222Z,52.85
2019-01-23T16:09:58.555Z,61.53
2019-01-23T16:12:25.452Z,49.85
2019-01-23T16:14:53.076Z,53.13
2019-01-23T16:17:20.238Z,52.45
2019-01-23T16:19:47.047Z,51.10
2019-01-23T16:22:14.530Z,51.80
2019-01-23T16:24:41.848Z,55.73
2019-01-23T16:27:09.568Z,45.92
2019-01-23T16:29:36.887Z,48.58
2019-01-23T16:32:04.493Z,52.65
2019-01-23T16:34:31.814Z,55.12
2019-01-23T16:36:59.865Z,59.30
2019-01-23T16:39:27.331Z,57.73
2019-01-23T16:42:02.051Z,53.85
2019-01-23T16:44:29.164Z,53.00
2019-01-23T16:46:56.337Z,56.05
2019-01-23T16:49:24.229Z,58.30
2019-01-23T16:51:51.638Z,49.18
2019-01-23T16:54:19.089Z,68.83
2019-01-23T16:56:47.017Z,56.28
2019-01-23T16:59:14.812Z,47.75
2019-01-23T17:01:42.409Z,46.37
2019-01-23T17:04:09.789Z,54.80
2019-01-23T17:06:37.314Z,50.25
2019-01-23T17:09:07.090Z,54.23
2019-01-23T17:11:34.517Z,56.50
2019-01-23T17:14:02.300Z,55.90
2019-01-23T17:16:29.713Z,62.90
2019-01-23T17:18:56.770Z,57.80
2019-01-23T17:21:24.399Z,63.55
2019-01-23T17:23:51.745Z,56.18
2019-01-23T17:26:19.018Z,67.37
2019-01-23T17:28:46.829Z,67.30
2019-01-23T17:31:14.551Z,56.48
2019-01-23T17:33:41.726Z,55.17
2019-01-23T17:36:09.210Z,61.28
2019-01-23T17:38:36.381Z,63.20
2019-01-23T17:41:03.856Z,69.55
2019-01-23T17:43:31.926Z,65.08
2019-01-23T17:45:59.118Z,73.72
2019-01-23T17:48:28.403Z,65.80
2019-01-23T17:50:55.629Z,58.83
2019-01-23T17:53:22.967Z,62.53
2019-01-23T17:55:50.556Z,74.70
2019-01-23T17:58:18.153Z,66.67
2019-01-23T18:00:53.237Z,73.92
2019-01-23T18:03:20.534Z,84.80
2019-01-23T18:05:51.188Z,72.42
2019-01-23T18:08:17.086Z,70.25
2019-01-23T18:10:44.366Z,73.72
2019-01-23T18:13:11.355Z,70.78
2019-01-23T18:15:38.207Z,84.60
2019-01-23T18:18:06.290Z,64.62
2019-01-23T18:20:34.298Z,69.82
2019-01-23T18:23:01.759Z,70.32
2019-01-23T18:25:28.809Z,67.30
2019-01-23T18:27:56.089Z,71.60
2019-01-23T18:30:29.128Z,65.62
2019-01-23T18:33:00.276Z,73.92
2019-01-23T18:36:08.658Z,63.65
2019-01-23T18:38:56.914Z,74.10
2019-01-23T18:42:11.041Z,65.42
2019-01-23T18:45:01.533Z,75.35
2019-01-23T18:47:48.266Z,70.55
2019-01-23T18:51:05.045Z,75.25
2019-01-23T18:53:31.957Z,63.87
2019-01-23T18:55:59.594Z,81.87
2019-01-23T18:58:27.230Z,73.67
2019-01-23T19:00:54.156Z,65.03
2019-01-23T19:03:20.969Z,66.85
2019-01-23T19:05:48.002Z,109.57
2019-01-23T19:08:15.340Z,83.55
2019-01-23T19:10:42.843Z,156.32
2019-01-23T19:13:09.869Z,118.05
2019-01-23T19:15:37.002Z,82.25
2019-01-23T19:18:04.151Z,71.85
2019-01-23T19:20:31.494Z,71.45
2019-01-23T19:22:58.607Z,69.60
2019-01-23T19:25:25.786Z,73.90
2019-01-23T19:27:52.826Z,67.53
2019-01-23T19:30:20.730Z,77.40
2019-01-23T19:32:47.922Z,100.00
2019-01-23T19:35:15.079Z,86.15
2019-01-23T19:37:42.104Z,67.85
2019-01-23T19:40:10.044Z,87.15
2019-01-23T19:42:36.991Z,80.45
2019-01-23T19:45:06.452Z,94.87
2019-01-23T19:47:34.261Z,81.67
2019-01-23T19:50:01.350Z,76.10
2019-01-23T19:52:28.271Z,97.22
2019-01-23T19:54:55.589Z,83.12
2019-01-23T19:57:22.753Z,116.00
2019-01-23T19:59:49.567Z,91.00
2019-01-23T20:02:16.387Z,103.47
2019-01-23T20:04:43.380Z,96.12
2019-01-23T20:07:10.706Z,67.03
2019-01-23T20:09:37.894Z,119.80
2019-01-23T20:12:05.174Z,93.42
2019-01-23T20:14:32.397Z,79.47
2019-01-23T20:16:59.763Z,69.47
2019-01-23T20:19:26.942Z,69.15
2019-01-23T20:21:54.335Z,81.45
2019-01-23T20:24:21.629Z,136.50
2019-01-23T20:26:48.829Z,94.50
2019-01-23T20:29:16.191Z,99.28
2019-01-23T20:31:46.124Z,89.67
2019-01-23T20:34:13.054Z,99.10
2019-01-23T20:36:40.137Z,121.42
2019-01-23T20:39:08.931Z,136.28
2019-01-23T20:41:36.089Z,108.05
2019-01-23T20:44:03.718Z,92.75
2019-01-23T20:46:30.785Z,97.42
2019-01-23T20:48:58.064Z,157.88
2019-01-23T20:51:24.973Z,73.35
2019-01-23T20:53:52.038Z,76.87
2019-01-23T20:56:18.937Z,93.30
2019-01-23T20:58:45.926Z,94.62
2019-01-23T21:01:12.833Z,77.37
2019-01-23T21:03:40.055Z,73.52
2019-01-23T21:06:07.320Z,70.28
2019-01-23T21:08:34.522Z,88.75
2019-01-23T21:11:01.438Z,82.02
2019-01-23T21:13:28.883Z,77.25
2019-01-23T21:15:55.947Z,60.92
2019-01-23T21:18:23.008Z,83.17
2019-01-23T21:20:50.057Z,73.60
2019-01-23T21:23:17.277Z,92.27
2019-01-23T21:25:44.610Z,139.97
2019-01-23T21:28:12.177Z,74.87
2019-01-23T21:30:39.118Z,89.13
2019-01-23T21:33:06.440Z,105.87
2019-01-23T21:35:33.968Z,96.42
2019-01-23T21:38:00.978Z,77.42
2019-01-23T21:40:30.187Z,61.08
2019-01-23T21:42:57.450Z,65.45
2019-01-23T21:45:25.898Z,72.80
2019-01-23T21:47:52.988Z,117.22
2019-01-23T21:50:22.601Z,94.97
2019-01-23T21:52:49.794Z,79.07
2019-01-23T21:55:18.782Z,88.05
2019-01-23T21:57:46.142Z,86.70
2019-01-23T22:00:16.754Z,101.95
2019-01-23T22:02:44.011Z,98.85
2019-01-23T22:05:11.403Z,86.37
2019-01-23T22:07:38.663Z,95.70
2019-01-23T22:10:06.671Z,77.08
2019-01-23T22:12:33.599Z,68.45
2019-01-23T22:15:00.793Z,78.37
2019-01-23T22:17:28.181Z,81.32
2019-01-23T22:19:55.384Z,88.90
2019-01-23T22:22:22.551Z,77.05
2019-01-23T22:24:49.414Z,70.10
2019-01-23T22:27:16.493Z,79.50
2019-01-23T22:29:43.566Z,83.72
2019-01-23T22:32:10.573Z,84.52
2019-01-23T22:34:37.429Z,80.07
2019-01-23T22:37:05.060Z,93.97
2019-01-23T22:39:32.306Z,73.83
2019-01-23T22:41:59.394Z,75.03
2019-01-23T22:44:26.204Z,98.90
2019-01-23T22:46:53.624Z,71.75
2019-01-23T22:49:20.500Z,65.83
2019-01-23T22:51:47.327Z,92.12
2019-01-23T22:54:14.138Z,72.35
2019-01-23T22:56:41.526Z,71.10
2019-01-23T22:59:08.448Z,65.60
2019-01-23T23:01:35.483Z,78.62
2019-01-23T23:04:03.385Z,90.00
2019-01-23T23:06:30.821Z,80.45
2019-01-23T23:08:57.990Z,72.20
2019-01-23T23:11:25.099Z,87.17
2019-01-23T23:13:52.004Z,70.95
2019-01-23T23:16:18.925Z,71.17
2019-01-23T23:18:46.034Z,108.15
2019-01-23T23:21:13.227Z,78.72
2019-01-23T23:23:40.233Z,78.35
2019-01-23T23:26:07.538Z,72.27
2019-01-23T23:28:34.550Z,67.10
2019-01-23T23:31:01.884Z,82.00
2019-01-23T23:33:29.126Z,77.25
2019-01-23T23:35:56.202Z,85.45
2019-01-23T23:38:23.132Z,88.92
2019-01-23T23:40:49.942Z,100.15
2019-01-23T23:43:17.118Z,75.50
2019-01-23T23:45:43.919Z,73.65
2019-01-23T23:48:10.925Z,73.30
2019-01-23T23:50:38.084Z,87.08
2019-01-23T23:53:05.504Z,122.00
2019-01-23T23:55:32.413Z,97.45
2019-01-23T23:57:59.229Z,98.37
